createdAt,value
2023-05-14T00:00:44.676Z,81.49
2023-05-14T00:03:11.711Z,82.36
2023-05-14T00:05:38.453Z,83.08
2023-05-14T00:08:05.264Z,82.45
2023-05-14T00:10:31.802Z,82.71
2023-05-14T00:12:58.427Z,83.18
2023-05-14T00:15:24.907Z,83.33
2023-05-14T00:17:51.464Z,82.93
2023-05-14T00:20:18.044Z,83.16
2023-05-14T00:22:44.640Z,83.88
2023-05-14T00:25:11.181Z,83.37
2023-05-14T00:27:37.924Z,83.44
2023-05-14T00:30:06.977Z,83.25
2023-05-14T00:32:33.638Z,82.44
2023-05-14T00:35:00.376Z,83.16
2023-05-14T00:37:26.868Z,84.01
2023-05-14T00:39:53.325Z,84.24
2023-05-14T00:42:19.879Z,84.68
2023-05-14T00:44:46.315Z,84.71
2023-05-14T00:47:13.271Z,84.92
2023-05-14T00:49:40.889Z,84.09
2023-05-14T00:52:07.797Z,84.73
2023-05-14T00:54:36.410Z,84.83
2023-05-14T00:57:04.741Z,84.36
2023-05-14T00:59:31.436Z,84.82
2023-05-14T01:01:58.116Z,85.63
2023-05-14T01:04:24.849Z,84.99
2023-05-14T01:07:29.737Z,85.43
2023-05-14T01:10:08.529Z,86.03
2023-05-14T01:12:47.729Z,86.17
2023-05-14T01:15:17.182Z,85.87
2023-05-14T01:17:48.726Z,86.38
2023-05-14T01:20:15.616Z,85.93
2023-05-14T01:22:42.625Z,86.22
2023-05-14T01:25:09.565Z,86.38
2023-05-14T01:27:42.737Z,86.25
2023-05-14T01:30:27.412Z,87.10
2023-05-14T01:32:58.251Z,86.82
2023-05-14T01:35:28.697Z,86.43
2023-05-14T01:38:03.752Z,86.85
2023-05-14T01:40:32.791Z,87.26
2023-05-14T01:42:59.370Z,86.56
2023-05-14T01:45:26.272Z,86.62
2023-05-14T01:47:52.891Z,86.31
2023-05-14T01:50:19.665Z,86.75
2023-05-14T01:52:48.274Z,87.58
2023-05-14T01:55:15.969Z,87.01
2023-05-14T01:57:42.437Z,86.73
2023-05-14T02:00:09.415Z,87.33
2023-05-14T02:02:36.112Z,87.61
2023-05-14T02:05:03.907Z,88.41
2023-05-14T02:07:32.064Z,87.73
2023-05-14T02:09:58.620Z,87.23
2023-05-14T02:12:25.092Z,87.64
2023-05-14T02:14:51.799Z,88.23
2023-05-14T02:17:18.544Z,87.81
2023-05-14T02:19:45.221Z,88.26
2023-05-14T02:22:12.092Z,88.46
2023-05-14T02:24:38.880Z,88.12
2023-05-14T02:27:06.272Z,87.97
2023-05-14T02:29:32.737Z,88.14
2023-05-14T02:31:59.250Z,88.16
2023-05-14T02:34:25.974Z,88.50
2023-05-14T02:36:52.506Z,88.93
2023-05-14T02:39:19.011Z,89.02
2023-05-14T02:41:45.573Z,88.16
2023-05-14T02:44:12.234Z,88.29
2023-05-14T02:46:38.747Z,88.40
2023-05-14T02:49:05.321Z,88.80
2023-05-14T02:51:31.771Z,88.66
2023-05-14T02:53:58.322Z,89.01
2023-05-14T02:56:24.961Z,89.42
2023-05-14T02:58:51.481Z,88.64
2023-05-14T03:01:18.853Z,89.32
2023-05-14T03:03:45.838Z,89.11
2023-05-14T03:06:12.738Z,88.80
2023-05-14T03:08:39.226Z,88.78
2023-05-14T03:11:06.882Z,89.45
2023-05-14T03:13:33.356Z,89.40
2023-05-14T03:15:59.850Z,90.05
2023-05-14T03:18:28.308Z,89.52
2023-05-14T03:20:54.856Z,89.43
2023-05-14T03:23:21.321Z,90.26
2023-05-14T03:25:47.836Z,90.08
2023-05-14T03:28:14.348Z,90.14
2023-05-14T03:30:40.969Z,90.00
2023-05-14T03:33:07.647Z,89.89
2023-05-14T03:35:34.264Z,90.20
2023-05-14T03:38:00.797Z,89.85
2023-05-14T03:40:29.528Z,89.77
2023-05-14T03:42:56.176Z,89.66
2023-05-14T03:45:22.713Z,89.53
2023-05-14T03:47:49.224Z,90.11
2023-05-14T03:50:15.914Z,90.42
2023-05-14T03:52:42.405Z,90.01
2023-05-14T03:55:09.381Z,90.04
2023-05-14T03:57:36.729Z,89.86
2023-05-14T04:00:04.612Z,89.94
2023-05-14T04:02:31.206Z,89.74
2023-05-14T04:04:57.779Z,90.00
2023-05-14T04:07:24.372Z,89.69
2023-05-14T04:09:50.803Z,89.57
2023-05-14T04:12:17.307Z,89.93
2023-05-14T04:14:43.801Z,89.45
2023-05-14T04:17:10.245Z,90.60
2023-05-14T04:19:36.776Z,90.46
2023-05-14T04:22:03.437Z,90.36
2023-05-14T04:24:29.885Z,90.54
2023-05-14T04:26:56.339Z,90.16
2023-05-14T04:29:22.863Z,90.73
2023-05-14T04:31:50.178Z,89.99
2023-05-14T04:34:16.656Z,90.78
2023-05-14T04:36:43.250Z,90.41
2023-05-14T04:39:09.948Z,90.15
2023-05-14T04:41:36.864Z,89.90
2023-05-14T04:44:03.959Z,90.47
2023-05-14T04:46:30.561Z,90.19
2023-05-14T04:48:57.678Z,90.01
2023-05-14T04:51:24.450Z,89.47
2023-05-14T04:53:50.979Z,89.41
2023-05-14T04:56:17.542Z,88.89
2023-05-14T04:58:44.032Z,89.33
2023-05-14T05:01:10.572Z,89.44
2023-05-14T05:03:37.192Z,89.14
2023-05-14T05:06:03.822Z,89.33
2023-05-14T05:08:30.815Z,88.99
2023-05-14T05:10:57.235Z,89.01
2023-05-14T05:13:23.719Z,89.04
2023-05-14T05:15:51.132Z,89.26
2023-05-14T05:18:17.790Z,88.63
2023-05-14T05:20:44.325Z,88.55
2023-05-14T05:23:10.946Z,88.17
2023-05-14T05:25:37.450Z,88.49
2023-05-14T05:28:04.128Z,87.87
2023-05-14T05:30:30.806Z,88.67
2023-05-14T05:32:57.725Z,88.43
2023-05-14T05:35:24.594Z,88.57
2023-05-14T05:37:51.093Z,88.41
2023-05-14T05:40:17.823Z,87.44
2023-05-14T05:42:44.630Z,88.18
2023-05-14T05:45:11.307Z,88.15
2023-05-14T05:47:37.814Z,88.45
2023-05-14T05:50:04.686Z,88.51
2023-05-14T05:52:31.244Z,87.82
2023-05-14T05:54:58.143Z,88.36
2023-05-14T05:57:27.076Z,88.31
2023-05-14T05:59:53.660Z,87.31
2023-05-14T06:02:20.371Z,87.60
2023-05-14T06:04:46.889Z,87.66
2023-05-14T06:07:13.348Z,87.70
2023-05-14T06:09:39.851Z,87.69
2023-05-14T06:12:06.784Z,87.19
2023-05-14T06:14:33.548Z,87.73
2023-05-14T06:17:00.273Z,87.04
2023-05-14T06:19:26.946Z,87.46
2023-05-14T06:21:53.439Z,86.33
2023-05-14T06:24:20.390Z,86.30
2023-05-14T06:26:48.790Z,86.16
2023-05-14T06:29:15.346Z,84.96
2023-05-14T06:31:42.129Z,85.81
2023-05-14T06:34:09.181Z,85.18
2023-05-14T06:36:35.654Z,85.19
2023-05-14T06:39:02.151Z,84.00
2023-05-14T06:41:29.551Z,84.30
2023-05-14T06:43:56.022Z,84.41
2023-05-14T06:46:22.504Z,83.70
2023-05-14T06:48:49.122Z,83.05
2023-05-14T06:51:15.738Z,83.14
2023-05-14T06:53:42.243Z,82.66
2023-05-14T06:56:08.709Z,80.81
2023-05-14T06:58:35.396Z,81.38
2023-05-14T07:01:01.966Z,81.95
2023-05-14T07:03:29.224Z,81.92
2023-05-14T07:05:55.754Z,82.71
2023-05-14T07:08:22.198Z,80.98
2023-05-14T07:10:48.679Z,81.13
2023-05-14T07:13:15.169Z,80.48
2023-05-14T07:15:41.672Z,78.67
2023-05-14T07:18:08.767Z,79.06
2023-05-14T07:20:35.327Z,79.32
2023-05-14T07:23:01.934Z,78.69
2023-05-14T07:25:28.482Z,77.66
2023-05-14T07:27:55.228Z,77.38
2023-05-14T07:30:26.702Z,77.79
2023-05-14T07:32:53.352Z,79.01
2023-05-14T07:35:19.998Z,76.50
2023-05-14T07:37:46.554Z,78.29
2023-05-14T07:40:13.353Z,77.28
2023-05-14T07:42:39.853Z,77.02
2023-05-14T07:45:06.928Z,74.94
2023-05-14T07:47:33.769Z,73.12
2023-05-14T07:50:00.379Z,68.04
2023-05-14T07:52:26.892Z,64.46
2023-05-14T07:54:53.480Z,63.74
2023-05-14T07:57:20.188Z,61.84
2023-05-14T07:59:47.765Z,60.87
2023-05-14T08:02:16.084Z,59.56
2023-05-14T08:04:42.812Z,58.69
2023-05-14T08:07:09.358Z,58.66
2023-05-14T08:09:35.949Z,58.76
2023-05-14T08:12:02.508Z,61.18
2023-05-14T08:14:29.089Z,63.25
2023-05-14T08:16:55.836Z,61.58
2023-05-14T08:19:24.089Z,60.34
2023-05-14T08:21:51.375Z,60.83
2023-05-14T08:24:18.973Z,60.99
2023-05-14T08:26:45.518Z,60.71
2023-05-14T08:29:13.426Z,59.90
2023-05-14T08:31:42.278Z,57.38
2023-05-14T08:34:08.863Z,57.52
2023-05-14T08:36:35.531Z,55.69
2023-05-14T08:39:02.047Z,54.50
2023-05-14T08:41:28.958Z,52.90
2023-05-14T08:44:12.029Z,57.54
2023-05-14T08:46:39.879Z,55.51
2023-05-14T08:49:32.412Z,56.12
2023-05-14T08:52:00.177Z,53.81
2023-05-14T08:54:28.710Z,51.59
2023-05-14T08:56:55.688Z,53.49
2023-05-14T08:59:22.111Z,51.36
2023-05-14T09:01:51.938Z,51.81
2023-05-14T09:04:24.334Z,54.67
2023-05-14T09:06:53.476Z,49.85
2023-05-14T09:09:24.348Z,52.40
2023-05-14T09:11:52.416Z,50.95
2023-05-14T09:14:19.360Z,51.38
2023-05-14T09:16:48.142Z,52.43
2023-05-14T09:19:15.879Z,50.62
2023-05-14T09:21:44.588Z,50.73
2023-05-14T09:24:19.380Z,52.31
2023-05-14T09:26:51.713Z,50.86
2023-05-14T09:29:18.420Z,50.32
2023-05-14T09:31:45.273Z,52.20
2023-05-14T09:34:12.349Z,52.08
2023-05-14T09:36:38.864Z,52.16
2023-05-14T09:39:05.724Z,55.36
2023-05-14T09:41:32.292Z,54.55
2023-05-14T09:43:58.769Z,52.53
2023-05-14T09:46:30.051Z,55.38
2023-05-14T09:48:56.902Z,54.82
2023-05-14T09:51:23.930Z,54.31
2023-05-14T09:53:53.416Z,51.21
2023-05-14T09:56:21.643Z,51.59
2023-05-14T09:58:48.637Z,52.62
2023-05-14T10:01:18.904Z,51.34
2023-05-14T10:03:46.244Z,55.80
2023-05-14T10:06:15.082Z,53.39
2023-05-14T10:08:44.823Z,53.44
2023-05-14T10:11:22.337Z,53.54
2023-05-14T10:13:59.847Z,52.57
2023-05-14T10:16:34.060Z,51.71
2023-05-14T10:19:14.932Z,53.23
2023-05-14T10:21:47.376Z,53.17
2023-05-14T10:24:14.803Z,55.96
2023-05-14T10:26:42.166Z,54.79
2023-05-14T10:29:12.768Z,54.48
2023-05-14T10:31:49.727Z,55.63
2023-05-14T10:34:40.814Z,56.60
2023-05-14T10:37:24.728Z,52.75
2023-05-14T10:39:58.991Z,53.66
2023-05-14T10:42:32.493Z,51.83
2023-05-14T10:45:12.611Z,55.32
2023-05-14T10:47:42.531Z,52.96
2023-05-14T10:50:11.348Z,53.30
2023-05-14T10:52:38.188Z,55.03
2023-05-14T10:55:10.072Z,55.58
2023-05-14T10:57:39.857Z,54.36
2023-05-14T11:00:10.724Z,53.23
2023-05-14T11:02:43.124Z,54.90
2023-05-14T11:05:17.706Z,53.96
2023-05-14T11:07:45.512Z,54.65
2023-05-14T11:10:14.752Z,54.09
2023-05-14T11:12:43.683Z,54.85
2023-05-14T11:15:12.671Z,53.16
2023-05-14T11:17:41.569Z,51.54
2023-05-14T11:20:09.476Z,51.29
2023-05-14T11:22:37.670Z,50.56
2023-05-14T11:25:05.035Z,50.75
2023-05-14T11:27:34.009Z,50.67
2023-05-14T11:30:03.957Z,51.45
2023-05-14T11:32:32.902Z,51.02
2023-05-14T11:34:59.371Z,51.29
2023-05-14T11:37:26.144Z,51.20
2023-05-14T11:39:55.151Z,49.79
2023-05-14T11:42:22.569Z,50.72
2023-05-14T11:44:51.935Z,52.48
2023-05-14T11:47:19.917Z,52.87
2023-05-14T11:49:47.233Z,53.14
2023-05-14T11:52:15.080Z,51.90
2023-05-14T11:54:43.205Z,53.93
2023-05-14T11:57:12.577Z,53.69
2023-05-14T11:59:39.438Z,53.32
2023-05-14T12:02:12.477Z,53.77
2023-05-14T12:04:39.771Z,52.71
2023-05-14T12:07:15.255Z,51.32
2023-05-14T12:09:49.682Z,51.87
2023-05-14T12:12:22.019Z,54.02
2023-05-14T12:14:49.891Z,52.77
2023-05-14T12:17:23.353Z,51.67
2023-05-14T12:19:51.747Z,49.58
2023-05-14T12:22:19.150Z,52.61
2023-05-14T12:24:56.599Z,50.52
2023-05-14T12:27:24.613Z,50.34
2023-05-14T12:30:19.072Z,51.88
2023-05-14T12:32:46.361Z,53.22
2023-05-14T12:35:12.862Z,50.85
2023-05-14T12:37:40.051Z,49.17
2023-05-14T12:40:09.628Z,50.56
2023-05-14T12:42:36.523Z,50.72
2023-05-14T12:45:06.963Z,53.48
2023-05-14T12:47:33.558Z,49.99
2023-05-14T12:50:00.195Z,50.74
2023-05-14T12:52:37.698Z,49.75
2023-05-14T12:55:06.504Z,51.36
2023-05-14T12:57:35.382Z,49.36
2023-05-14T13:00:02.494Z,49.99
2023-05-14T13:02:29.076Z,50.35
2023-05-14T13:04:55.657Z,51.15
2023-05-14T13:07:22.288Z,50.95
2023-05-14T13:09:48.782Z,50.24
2023-05-14T13:12:15.568Z,51.58
2023-05-14T13:14:42.167Z,49.57
2023-05-14T13:17:08.733Z,52.08
2023-05-14T13:19:35.398Z,49.98
2023-05-14T13:22:01.949Z,48.95
2023-05-14T13:24:28.448Z,52.41
2023-05-14T13:26:54.931Z,51.75
2023-05-14T13:29:21.425Z,52.65
2023-05-14T13:31:47.976Z,50.22
2023-05-14T13:34:14.695Z,51.50
2023-05-14T13:36:43.484Z,51.58
2023-05-14T13:39:14.606Z,49.87
2023-05-14T13:41:41.525Z,50.41
2023-05-14T13:44:08.000Z,47.96
2023-05-14T13:46:34.971Z,48.41
2023-05-14T13:49:01.590Z,49.11
2023-05-14T13:51:28.079Z,51.67
2023-05-14T13:56:26.135Z,53.31
2023-05-14T13:58:52.824Z,52.10
2023-05-14T14:01:19.469Z,53.71
2023-05-14T14:03:46.002Z,53.63
2023-05-14T14:06:12.593Z,54.45
2023-05-14T14:08:39.089Z,55.69
2023-05-14T14:11:05.840Z,52.04
2023-05-14T14:13:32.284Z,54.18
2023-05-14T14:15:58.927Z,53.01
2023-05-14T14:18:25.761Z,53.56
2023-05-14T14:20:52.546Z,52.35
2023-05-14T14:23:19.684Z,55.74
2023-05-14T14:25:46.273Z,57.23
2023-05-14T14:28:12.904Z,52.93
2023-05-14T14:30:39.436Z,53.77
2023-05-14T14:33:06.063Z,54.84
2023-05-14T14:35:33.405Z,53.21
2023-05-14T14:37:59.872Z,55.41
2023-05-14T14:40:26.395Z,54.11
2023-05-14T14:42:52.896Z,54.57
2023-05-14T14:45:19.389Z,53.47
2023-05-14T14:47:46.794Z,53.94
2023-05-14T14:50:13.604Z,51.67
2023-05-14T14:52:45.416Z,54.17
2023-05-14T14:55:12.517Z,51.52
2023-05-14T14:57:39.053Z,51.38
2023-05-14T15:00:06.883Z,52.03
2023-05-14T15:02:33.668Z,48.54
2023-05-14T15:05:00.341Z,51.71
2023-05-14T15:07:26.819Z,52.26
2023-05-14T15:09:53.263Z,52.28
2023-05-14T15:12:19.804Z,52.62
2023-05-14T15:14:46.236Z,53.66
2023-05-14T15:17:12.722Z,55.63
2023-05-14T15:19:39.169Z,56.36
2023-05-14T15:22:05.727Z,54.27
2023-05-14T15:24:32.225Z,54.13
2023-05-14T15:26:58.704Z,52.50
2023-05-14T15:29:25.289Z,52.83
2023-05-14T15:31:51.875Z,51.76
2023-05-14T15:34:18.458Z,53.73
2023-05-14T15:36:44.934Z,53.60
2023-05-14T15:39:11.530Z,53.42
2023-05-14T15:41:38.030Z,54.78
2023-05-14T15:44:04.753Z,51.64
2023-05-14T15:46:31.377Z,52.84
2023-05-14T15:48:58.635Z,55.67
2023-05-14T15:51:25.160Z,51.00
2023-05-14T15:53:54.067Z,54.05
2023-05-14T15:56:22.454Z,52.87
2023-05-14T15:58:49.710Z,52.11
2023-05-14T16:01:16.271Z,50.01
2023-05-14T16:03:42.938Z,51.62
2023-05-14T16:06:11.580Z,54.14
2023-05-14T16:08:38.324Z,55.45
2023-05-14T16:11:05.520Z,55.62
2023-05-14T16:13:32.127Z,54.80
2023-05-14T16:15:59.534Z,54.02
2023-05-14T16:18:26.377Z,54.97
2023-05-14T16:20:53.521Z,56.01
2023-05-14T16:23:20.009Z,54.88
2023-05-14T16:25:46.566Z,56.47
2023-05-14T16:28:13.572Z,57.77
2023-05-14T16:30:40.106Z,57.98
2023-05-14T16:33:06.841Z,58.07
2023-05-14T16:35:33.971Z,58.61
2023-05-14T16:38:00.600Z,60.01
2023-05-14T16:40:27.146Z,60.72
2023-05-14T16:42:53.690Z,60.86
2023-05-14T16:45:20.262Z,60.92
2023-05-14T16:47:46.756Z,59.37
2023-05-14T16:50:13.325Z,60.19
2023-05-14T16:52:39.968Z,60.47
2023-05-14T16:55:06.758Z,59.79
2023-05-14T16:57:34.211Z,58.11
2023-05-14T17:00:00.809Z,58.24
2023-05-14T17:02:27.297Z,60.77
2023-05-14T17:04:55.281Z,59.66
2023-05-14T17:07:21.860Z,59.78
2023-05-14T17:09:48.711Z,59.57
2023-05-14T17:12:15.364Z,61.41
2023-05-14T17:14:41.997Z,61.83
2023-05-14T17:17:08.538Z,63.50
2023-05-14T17:19:35.111Z,64.48
2023-05-14T17:22:01.647Z,66.27
2023-05-14T17:24:28.295Z,67.38
2023-05-14T17:26:54.725Z,68.53
2023-05-14T17:29:23.417Z,68.95
2023-05-14T17:31:51.154Z,69.08
2023-05-14T17:34:17.766Z,69.59
2023-05-14T17:36:44.345Z,69.36
2023-05-14T17:39:10.854Z,68.99
2023-05-14T17:41:37.470Z,69.17
2023-05-14T17:44:04.104Z,69.36
2023-05-14T17:46:30.779Z,70.07
2023-05-14T17:48:58.321Z,69.93
2023-05-14T17:51:25.238Z,69.99
2023-05-14T17:53:51.719Z,69.40
2023-05-14T17:56:18.823Z,70.29
2023-05-14T17:58:45.975Z,71.00
2023-05-14T18:01:12.760Z,71.42
2023-05-14T18:03:39.334Z,72.06
2023-05-14T18:06:06.102Z,73.86
2023-05-14T18:08:32.580Z,73.07
2023-05-14T18:11:00.734Z,73.57
2023-05-14T18:13:27.204Z,73.87
2023-05-14T18:15:54.389Z,74.35
2023-05-14T18:18:21.707Z,75.19
2023-05-14T18:20:49.389Z,75.35
2023-05-14T18:23:16.042Z,75.69
2023-05-14T18:25:42.811Z,74.85
2023-05-14T18:28:09.621Z,76.73
2023-05-14T18:30:36.205Z,75.96
2023-05-14T18:33:03.966Z,75.76
2023-05-14T18:35:30.884Z,76.41
2023-05-14T18:37:57.429Z,75.49
2023-05-14T18:40:23.964Z,76.26
2023-05-14T18:42:50.648Z,76.39
2023-05-14T18:45:17.183Z,76.22
2023-05-14T18:47:43.800Z,77.44
2023-05-14T18:50:10.523Z,76.85
2023-05-14T18:52:37.054Z,75.95
2023-05-14T18:55:03.892Z,77.18
2023-05-14T18:57:32.181Z,75.60
2023-05-14T19:00:03.877Z,75.21
2023-05-14T19:02:30.862Z,75.81
2023-05-14T19:04:57.454Z,77.07
2023-05-14T19:07:23.937Z,77.42
2023-05-14T19:09:50.687Z,77.55
2023-05-14T19:12:17.217Z,77.71
2023-05-14T19:14:43.718Z,78.73
2023-05-14T19:17:10.376Z,79.25
2023-05-14T19:19:37.853Z,79.85
2023-05-14T19:22:04.750Z,79.53
2023-05-14T19:24:31.182Z,80.02
2023-05-14T19:26:57.803Z,79.71
2023-05-14T19:29:24.876Z,80.01
2023-05-14T19:31:51.345Z,79.92
2023-05-14T19:34:17.867Z,79.18
2023-05-14T19:36:44.496Z,78.67
2023-05-14T19:39:11.191Z,79.32
2023-05-14T19:41:37.786Z,78.96
2023-05-14T19:44:04.290Z,78.82
2023-05-14T19:46:30.891Z,79.67
2023-05-14T19:48:57.380Z,79.99
2023-05-14T19:51:23.894Z,80.40
2023-05-14T19:53:50.495Z,80.87
2023-05-14T19:56:17.131Z,81.25
2023-05-14T19:58:44.465Z,81.20
2023-05-14T20:01:12.015Z,81.07
2023-05-14T20:03:38.984Z,81.75
2023-05-14T20:06:07.002Z,82.39
2023-05-14T20:08:33.651Z,82.82
2023-05-14T20:11:00.246Z,82.83
2023-05-14T20:13:26.750Z,83.40
2023-05-14T20:15:55.015Z,83.38
2023-05-14T20:18:21.875Z,83.43
2023-05-14T20:20:49.170Z,83.11
2023-05-14T20:23:15.942Z,83.92
2023-05-14T20:25:43.107Z,84.04
2023-05-14T20:28:10.337Z,83.96
2023-05-14T20:30:37.075Z,83.64
2023-05-14T20:33:04.038Z,84.25
2023-05-14T20:35:31.085Z,84.24
2023-05-14T20:37:57.552Z,84.26
2023-05-14T20:40:24.716Z,83.68
2023-05-14T20:42:51.718Z,83.96
2023-05-14T20:45:18.353Z,84.94
2023-05-14T20:47:44.964Z,84.81
2023-05-14T20:50:11.768Z,84.37
2023-05-14T20:52:38.251Z,84.75
2023-05-14T20:55:05.192Z,84.65
2023-05-14T20:57:31.817Z,84.21
2023-05-14T20:59:58.307Z,84.32
2023-05-14T21:02:25.102Z,84.80
2023-05-14T21:04:52.325Z,85.56
2023-05-14T21:07:18.860Z,84.93
2023-05-14T21:09:50.718Z,85.37
2023-05-14T21:12:17.242Z,85.39
2023-05-14T21:14:43.720Z,85.82
2023-05-14T21:17:10.633Z,86.23
2023-05-14T21:19:37.257Z,85.60
2023-05-14T21:22:03.752Z,85.99
2023-05-14T21:24:30.258Z,85.77
2023-05-14T21:26:56.783Z,85.85
2023-05-14T21:29:25.304Z,86.52
2023-05-14T21:31:51.858Z,86.42
2023-05-14T21:34:18.330Z,86.54
2023-05-14T21:36:44.811Z,86.96
2023-05-14T21:39:11.405Z,87.11
2023-05-14T21:41:37.861Z,87.09
2023-05-14T21:44:04.384Z,87.27
2023-05-14T21:46:31.308Z,87.27
2023-05-14T21:48:57.849Z,87.37
2023-05-14T21:51:24.523Z,87.57
2023-05-14T21:53:51.063Z,87.67
2023-05-14T21:56:17.614Z,86.99
2023-05-14T21:58:44.990Z,87.32
2023-05-14T22:01:11.541Z,87.90
2023-05-14T22:03:38.324Z,88.28
2023-05-14T22:06:05.396Z,88.51
2023-05-14T22:08:32.232Z,88.39
2023-05-14T22:10:58.789Z,88.58
2023-05-14T22:13:25.300Z,88.62
2023-05-14T22:16:01.193Z,89.04
2023-05-14T22:18:36.589Z,88.28
2023-05-14T22:21:03.641Z,88.87
2023-05-14T22:23:30.246Z,88.13
2023-05-14T22:25:57.390Z,89.02
2023-05-14T22:28:24.016Z,88.88
2023-05-14T22:30:50.705Z,88.58
2023-05-14T22:33:19.143Z,88.91
2023-05-14T22:35:45.583Z,88.69
2023-05-14T22:38:12.684Z,88.93
2023-05-14T22:40:39.247Z,89.18
2023-05-14T22:43:05.713Z,89.95
2023-05-14T22:45:32.179Z,89.41
2023-05-14T22:47:58.744Z,89.75
2023-05-14T22:50:25.688Z,89.92
2023-05-14T22:52:52.205Z,89.84
2023-05-14T22:55:18.757Z,90.48
2023-05-14T22:57:45.527Z,90.12
2023-05-14T23:00:12.712Z,89.85
2023-05-14T23:02:39.388Z,89.83
2023-05-14T23:05:07.867Z,90.29
2023-05-14T23:07:35.024Z,90.23
2023-05-14T23:10:01.881Z,90.28
2023-05-14T23:12:28.350Z,90.39
2023-05-14T23:14:54.903Z,90.06
2023-05-14T23:17:21.436Z,90.38
2023-05-14T23:19:47.971Z,90.84
2023-05-14T23:22:14.459Z,90.61
2023-05-14T23:24:40.920Z,90.72
2023-05-14T23:27:07.656Z,90.92
2023-05-14T23:29:34.136Z,90.56
2023-05-14T23:32:00.691Z,90.41
2023-05-14T23:34:27.271Z,90.38
2023-05-14T23:36:53.927Z,90.95
2023-05-14T23:39:21.466Z,90.15
2023-05-14T23:41:48.052Z,90.32
2023-05-14T23:44:15.117Z,89.95
2023-05-14T23:46:41.762Z,90.08
2023-05-14T23:49:08.292Z,90.35
2023-05-14T23:51:34.792Z,90.26
2023-05-14T23:54:01.237Z,89.92
2023-05-14T23:56:29.249Z,90.23
2023-05-14T23:58:56.709Z,90.94
